sensor_id;sensor_type;location;lat;lon;timestamp;P1;durP1;ratioP1;P2;durP2;ratioP2
53269;SDS011;39159;45.634;9.420;2023-06-19T00:00:27;12.50;;;9.48;;
53269;SDS011;39159;45.634;9.420;2023-06-19T00:02:55;13.63;;;10.77;;
53269;SDS011;39159;45.634;9.420;2023-06-19T00:05:20;12.82;;;10.85;;
53269;SDS011;39159;45.634;9.420;2023-06-19T00:07:48;13.82;;;11.77;;
53269;SDS011;39159;45.634;9.420;2023-06-19T00:10:13;15.57;;;12.48;;
53269;SDS011;39159;45.634;9.420;2023-06-19T00:12:39;16.15;;;11.40;;
53269;SDS011;39159;45.634;9.420;2023-06-19T00:15:04;13.23;;;10.40;;
53269;SDS011;39159;45.634;9.420;2023-06-19T00:17:30;17.55;;;12.10;;
53269;SDS011;39159;45.634;9.420;2023-06-19T00:19:56;21.27;;;12.88;;
53269;SDS011;39159;45.634;9.420;2023-06-19T00:22:21;12.85;;;11.40;;
53269;SDS011;39159;45.634;9.420;2023-06-19T00:24:47;20.25;;;13.52;;
53269;SDS011;39159;45.634;9.420;2023-06-19T00:27:13;16.10;;;13.63;;
53269;SDS011;39159;45.634;9.420;2023-06-19T00:29:38;16.20;;;13.55;;
53269;SDS011;39159;45.634;9.420;2023-06-19T00:32:04;17.13;;;14.23;;
53269;SDS011;39159;45.634;9.420;2023-06-19T00:34:30;16.10;;;14.40;;
53269;SDS011;39159;45.634;9.420;2023-06-19T00:36:58;16.67;;;12.98;;
53269;SDS011;39159;45.634;9.420;2023-06-19T00:39:24;15.70;;;13.38;;
53269;SDS011;39159;45.634;9.420;2023-06-19T00:41:53;17.63;;;13.20;;
53269;SDS011;39159;45.634;9.420;2023-06-19T00:44:20;13.85;;;11.60;;
53269;SDS011;39159;45.634;9.420;2023-06-19T00:46:45;14.98;;;12.80;;
53269;SDS011;39159;45.634;9.420;2023-06-19T00:49:11;12.98;;;11.27;;
53269;SDS011;39159;45.634;9.420;2023-06-19T00:51:38;19.50;;;13.40;;
53269;SDS011;39159;45.634;9.420;2023-06-19T00:54:04;17.65;;;13.43;;
53269;SDS011;39159;45.634;9.420;2023-06-19T00:56:30;15.75;;;12.95;;
53269;SDS011;39159;45.634;9.420;2023-06-19T00:58:57;13.30;;;11.60;;
53269;SDS011;39159;45.634;9.420;2023-06-19T01:01:23;15.90;;;12.85;;
53269;SDS011;39159;45.634;9.420;2023-06-19T01:03:49;15.50;;;12.85;;
53269;SDS011;39159;45.634;9.420;2023-06-19T01:06:17;16.13;;;12.95;;
53269;SDS011;39159;45.634;9.420;2023-06-19T01:11:31;14.18;;;11.90;;
53269;SDS011;39159;45.634;9.420;2023-06-19T01:14:08;13.80;;;12.20;;
53269;SDS011;39159;45.634;9.420;2023-06-19T01:16:46;18.15;;;12.30;;
53269;SDS011;39159;45.634;9.420;2023-06-19T01:19:14;15.25;;;12.18;;
53269;SDS011;39159;45.634;9.420;2023-06-19T01:21:44;13.57;;;11.73;;
53269;SDS011;39159;45.634;9.420;2023-06-19T01:24:11;15.65;;;12.65;;
53269;SDS011;39159;45.634;9.420;2023-06-19T01:26:36;16.02;;;12.23;;
53269;SDS011;39159;45.634;9.420;2023-06-19T01:29:02;15.30;;;12.20;;
53269;SDS011;39159;45.634;9.420;2023-06-19T01:34:17;16.15;;;11.98;;
53269;SDS011;39159;45.634;9.420;2023-06-19T01:36:46;13.93;;;11.75;;
53269;SDS011;39159;45.634;9.420;2023-06-19T01:39:14;15.32;;;12.95;;
53269;SDS011;39159;45.634;9.420;2023-06-19T01:41:42;15.68;;;12.07;;
53269;SDS011;39159;45.634;9.420;2023-06-19T01:44:09;15.70;;;12.35;;
53269;SDS011;39159;45.634;9.420;2023-06-19T01:46:35;15.80;;;13.15;;
53269;SDS011;39159;45.634;9.420;2023-06-19T01:49:00;15.88;;;12.05;;
53269;SDS011;39159;45.634;9.420;2023-06-19T01:51:26;16.95;;;12.80;;
53269;SDS011;39159;45.634;9.420;2023-06-19T01:53:51;15.98;;;11.98;;
53269;SDS011;39159;45.634;9.420;2023-06-19T01:56:17;14.43;;;11.45;;
53269;SDS011;39159;45.634;9.420;2023-06-19T01:58:42;14.10;;;11.75;;
53269;SDS011;39159;45.634;9.420;2023-06-19T02:01:08;17.02;;;12.93;;
53269;SDS011;39159;45.634;9.420;2023-06-19T02:03:33;15.05;;;11.82;;
53269;SDS011;39159;45.634;9.420;2023-06-19T02:05:59;17.50;;;12.05;;
53269;SDS011;39159;45.634;9.420;2023-06-19T02:08:24;13.45;;;11.43;;
53269;SDS011;39159;45.634;9.420;2023-06-19T02:10:49;13.30;;;11.18;;
53269;SDS011;39159;45.634;9.420;2023-06-19T02:13:15;13.00;;;11.13;;
53269;SDS011;39159;45.634;9.420;2023-06-19T02:15:40;13.85;;;12.05;;
53269;SDS011;39159;45.634;9.420;2023-06-19T02:18:06;13.00;;;11.68;;
53269;SDS011;39159;45.634;9.420;2023-06-19T02:20:32;12.80;;;11.30;;
53269;SDS011;39159;45.634;9.420;2023-06-19T02:22:57;15.98;;;12.55;;
53269;SDS011;39159;45.634;9.420;2023-06-19T02:25:23;14.70;;;12.43;;
53269;SDS011;39159;45.634;9.420;2023-06-19T02:27:48;15.90;;;12.07;;
53269;SDS011;39159;45.634;9.420;2023-06-19T02:30:14;13.80;;;12.30;;
53269;SDS011;39159;45.634;9.420;2023-06-19T02:32:39;15.13;;;12.57;;
53269;SDS011;39159;45.634;9.420;2023-06-19T02:35:06;15.52;;;12.52;;
53269;SDS011;39159;45.634;9.420;2023-06-19T02:37:33;14.60;;;12.77;;
53269;SDS011;39159;45.634;9.420;2023-06-19T02:40:01;15.48;;;13.85;;
53269;SDS011;39159;45.634;9.420;2023-06-19T02:42:28;16.45;;;13.07;;
53269;SDS011;39159;45.634;9.420;2023-06-19T02:44:54;13.57;;;12.18;;
53269;SDS011;39159;45.634;9.420;2023-06-19T02:47:19;14.88;;;11.98;;
53269;SDS011;39159;45.634;9.420;2023-06-19T02:49:44;15.57;;;11.50;;
53269;SDS011;39159;45.634;9.420;2023-06-19T02:52:10;14.85;;;11.27;;
53269;SDS011;39159;45.634;9.420;2023-06-19T02:54:35;13.88;;;11.82;;
53269;SDS011;39159;45.634;9.420;2023-06-19T02:57:01;18.00;;;11.48;;
53269;SDS011;39159;45.634;9.420;2023-06-19T02:59:26;16.42;;;11.65;;
53269;SDS011;39159;45.634;9.420;2023-06-19T03:01:52;14.90;;;11.50;;
53269;SDS011;39159;45.634;9.420;2023-06-19T03:04:17;13.45;;;11.43;;
53269;SDS011;39159;45.634;9.420;2023-06-19T03:06:43;13.05;;;11.60;;
53269;SDS011;39159;45.634;9.420;2023-06-19T03:09:08;15.15;;;11.32;;
53269;SDS011;39159;45.634;9.420;2023-06-19T03:11:40;16.33;;;11.75;;
53269;SDS011;39159;45.634;9.420;2023-06-19T03:14:06;14.35;;;12.30;;
53269;SDS011;39159;45.634;9.420;2023-06-19T03:16:33;12.85;;;11.18;;
53269;SDS011;39159;45.634;9.420;2023-06-19T03:18:59;13.07;;;11.50;;
53269;SDS011;39159;45.634;9.420;2023-06-19T03:21:25;14.73;;;11.35;;
53269;SDS011;39159;45.634;9.420;2023-06-19T03:23:51;13.68;;;11.38;;
53269;SDS011;39159;45.634;9.420;2023-06-19T03:26:18;13.88;;;11.70;;
53269;SDS011;39159;45.634;9.420;2023-06-19T03:28:44;13.18;;;11.43;;
53269;SDS011;39159;45.634;9.420;2023-06-19T03:31:12;14.48;;;12.27;;
53269;SDS011;39159;45.634;9.420;2023-06-19T03:33:37;16.55;;;12.05;;
53269;SDS011;39159;45.634;9.420;2023-06-19T03:36:03;15.90;;;11.98;;
53269;SDS011;39159;45.634;9.420;2023-06-19T03:38:29;14.57;;;12.07;;
53269;SDS011;39159;45.634;9.420;2023-06-19T03:40:54;20.13;;;12.48;;
53269;SDS011;39159;45.634;9.420;2023-06-19T03:43:20;13.68;;;11.45;;
53269;SDS011;39159;45.634;9.420;2023-06-19T03:45:45;14.93;;;12.15;;
53269;SDS011;39159;45.634;9.420;2023-06-19T03:48:11;13.13;;;11.10;;
53269;SDS011;39159;45.634;9.420;2023-06-19T03:50:36;13.10;;;11.30;;
53269;SDS011;39159;45.634;9.420;2023-06-19T03:53:02;15.32;;;11.90;;
53269;SDS011;39159;45.634;9.420;2023-06-19T03:55:28;16.60;;;12.70;;
53269;SDS011;39159;45.634;9.420;2023-06-19T03:57:53;13.27;;;11.23;;
53269;SDS011;39159;45.634;9.420;2023-06-19T04:00:19;16.35;;;11.73;;
53269;SDS011;39159;45.634;9.420;2023-06-19T04:02:44;15.65;;;11.50;;
53269;SDS011;39159;45.634;9.420;2023-06-19T04:05:11;16.30;;;11.40;;
53269;SDS011;39159;45.634;9.420;2023-06-19T04:07:37;11.93;;;10.13;;
53269;SDS011;39159;45.634;9.420;2023-06-19T04:10:02;14.80;;;10.95;;
53269;SDS011;39159;45.634;9.420;2023-06-19T04:12:28;14.55;;;10.45;;
53269;SDS011;39159;45.634;9.420;2023-06-19T04:14:54;17.00;;;9.93;;
53269;SDS011;39159;45.634;9.420;2023-06-19T04:17:19;13.55;;;10.23;;
53269;SDS011;39159;45.634;9.420;2023-06-19T04:19:44;11.77;;;9.75;;
53269;SDS011;39159;45.634;9.420;2023-06-19T04:22:10;15.27;;;10.10;;
53269;SDS011;39159;45.634;9.420;2023-06-19T04:24:35;10.45;;;9.35;;
53269;SDS011;39159;45.634;9.420;2023-06-19T04:27:01;11.15;;;9.27;;
53269;SDS011;39159;45.634;9.420;2023-06-19T04:29:27;10.18;;;8.80;;
53269;SDS011;39159;45.634;9.420;2023-06-19T04:31:58;13.68;;;9.73;;
53269;SDS011;39159;45.634;9.420;2023-06-19T04:34:24;12.68;;;9.40;;
53269;SDS011;39159;45.634;9.420;2023-06-19T04:36:50;13.40;;;8.60;;
53269;SDS011;39159;45.634;9.420;2023-06-19T04:39:16;12.20;;;8.65;;
53269;SDS011;39159;45.634;9.420;2023-06-19T04:41:44;9.65;;;8.15;;
53269;SDS011;39159;45.634;9.420;2023-06-19T04:44:10;10.52;;;7.95;;
53269;SDS011;39159;45.634;9.420;2023-06-19T04:46:39;16.40;;;8.30;;
53269;SDS011;39159;45.634;9.420;2023-06-19T04:49:05;15.40;;;9.68;;
53269;SDS011;39159;45.634;9.420;2023-06-19T04:51:31;11.55;;;9.70;;
53269;SDS011;39159;45.634;9.420;2023-06-19T04:54:00;15.68;;;8.93;;
53269;SDS011;39159;45.634;9.420;2023-06-19T04:56:26;10.98;;;9.63;;
53269;SDS011;39159;45.634;9.420;2023-06-19T04:58:52;15.00;;;9.70;;
53269;SDS011;39159;45.634;9.420;2023-06-19T05:01:21;12.70;;;9.30;;
53269;SDS011;39159;45.634;9.420;2023-06-19T05:03:52;13.82;;;9.32;;
53269;SDS011;39159;45.634;9.420;2023-06-19T05:06:18;11.93;;;9.55;;
53269;SDS011;39159;45.634;9.420;2023-06-19T05:08:43;12.63;;;9.90;;
53269;SDS011;39159;45.634;9.420;2023-06-19T05:11:09;12.23;;;9.38;;
53269;SDS011;39159;45.634;9.420;2023-06-19T05:13:34;10.18;;;9.10;;
53269;SDS011;39159;45.634;9.420;2023-06-19T05:15:59;13.82;;;9.15;;
53269;SDS011;39159;45.634;9.420;2023-06-19T05:18:25;10.98;;;9.40;;
53269;SDS011;39159;45.634;9.420;2023-06-19T05:20:50;14.57;;;9.93;;
53269;SDS011;39159;45.634;9.420;2023-06-19T05:23:16;15.93;;;9.70;;
53269;SDS011;39159;45.634;9.420;2023-06-19T05:25:41;13.95;;;9.55;;
53269;SDS011;39159;45.634;9.420;2023-06-19T05:28:08;18.00;;;10.32;;
53269;SDS011;39159;45.634;9.420;2023-06-19T05:30:34;14.43;;;8.98;;
53269;SDS011;39159;45.634;9.420;2023-06-19T05:33:00;11.73;;;8.98;;
53269;SDS011;39159;45.634;9.420;2023-06-19T05:35:25;9.93;;;8.63;;
53269;SDS011;39159;45.634;9.420;2023-06-19T05:37:51;12.80;;;8.77;;
53269;SDS011;39159;45.634;9.420;2023-06-19T05:40:17;11.20;;;9.07;;
53269;SDS011;39159;45.634;9.420;2023-06-19T05:42:42;10.25;;;8.15;;
53269;SDS011;39159;45.634;9.420;2023-06-19T05:45:08;13.40;;;9.77;;
53269;SDS011;39159;45.634;9.420;2023-06-19T05:47:34;15.15;;;10.02;;
53269;SDS011;39159;45.634;9.420;2023-06-19T05:50:00;14.88;;;9.18;;
53269;SDS011;39159;45.634;9.420;2023-06-19T05:52:25;11.68;;;9.02;;
53269;SDS011;39159;45.634;9.420;2023-06-19T05:54:51;12.85;;;8.60;;
53269;SDS011;39159;45.634;9.420;2023-06-19T05:57:17;12.82;;;8.52;;
53269;SDS011;39159;45.634;9.420;2023-06-19T05:59:46;12.57;;;8.70;;
53269;SDS011;39159;45.634;9.420;2023-06-19T06:02:12;13.68;;;7.82;;
53269;SDS011;39159;45.634;9.420;2023-06-19T06:04:38;9.25;;;6.40;;
53269;SDS011;39159;45.634;9.420;2023-06-19T06:07:04;6.82;;;5.60;;
53269;SDS011;39159;45.634;9.420;2023-06-19T06:09:29;7.30;;;5.97;;
53269;SDS011;39159;45.634;9.420;2023-06-19T06:11:55;8.40;;;6.63;;
53269;SDS011;39159;45.634;9.420;2023-06-19T06:14:20;11.68;;;6.28;;
53269;SDS011;39159;45.634;9.420;2023-06-19T06:16:46;8.02;;;5.90;;
53269;SDS011;39159;45.634;9.420;2023-06-19T06:19:11;8.50;;;5.95;;
53269;SDS011;39159;45.634;9.420;2023-06-19T06:21:37;7.47;;;6.30;;
53269;SDS011;39159;45.634;9.420;2023-06-19T06:24:02;7.00;;;5.97;;
53269;SDS011;39159;45.634;9.420;2023-06-19T06:26:28;7.93;;;6.63;;
53269;SDS011;39159;45.634;9.420;2023-06-19T06:28:54;14.40;;;6.63;;
53269;SDS011;39159;45.634;9.420;2023-06-19T06:31:21;8.05;;;5.68;;
53269;SDS011;39159;45.634;9.420;2023-06-19T06:33:47;8.18;;;6.18;;
53269;SDS011;39159;45.634;9.420;2023-06-19T06:36:14;7.68;;;6.10;;
53269;SDS011;39159;45.634;9.420;2023-06-19T06:38:40;8.68;;;7.13;;
53269;SDS011;39159;45.634;9.420;2023-06-19T06:41:06;8.65;;;6.40;;
53269;SDS011;39159;45.634;9.420;2023-06-19T06:43:31;10.25;;;6.22;;
53269;SDS011;39159;45.634;9.420;2023-06-19T06:45:57;6.15;;;5.47;;
53269;SDS011;39159;45.634;9.420;2023-06-19T06:48:22;7.10;;;5.85;;
53269;SDS011;39159;45.634;9.420;2023-06-19T06:50:48;7.88;;;6.22;;
53269;SDS011;39159;45.634;9.420;2023-06-19T06:53:13;6.95;;;5.45;;
53269;SDS011;39159;45.634;9.420;2023-06-19T06:55:39;7.88;;;5.63;;
53269;SDS011;39159;45.634;9.420;2023-06-19T06:58:04;7.65;;;5.97;;
53269;SDS011;39159;45.634;9.420;2023-06-19T07:00:30;7.15;;;5.53;;
53269;SDS011;39159;45.634;9.420;2023-06-19T07:02:55;10.02;;;5.93;;
53269;SDS011;39159;45.634;9.420;2023-06-19T07:05:21;8.38;;;5.60;;
53269;SDS011;39159;45.634;9.420;2023-06-19T07:07:47;5.75;;;4.93;;
53269;SDS011;39159;45.634;9.420;2023-06-19T07:10:13;6.57;;;5.55;;
53269;SDS011;39159;45.634;9.420;2023-06-19T07:12:48;10.20;;;6.35;;
53269;SDS011;39159;45.634;9.420;2023-06-19T07:15:13;6.82;;;5.32;;
53269;SDS011;39159;45.634;9.420;2023-06-19T07:17:39;9.93;;;6.32;;
53269;SDS011;39159;45.634;9.420;2023-06-19T07:20:05;10.43;;;5.70;;
53269;SDS011;39159;45.634;9.420;2023-06-19T07:22:31;6.85;;;5.32;;
53269;SDS011;39159;45.634;9.420;2023-06-19T07:24:57;9.25;;;6.90;;
53269;SDS011;39159;45.634;9.420;2023-06-19T07:27:22;7.72;;;5.80;;
53269;SDS011;39159;45.634;9.420;2023-06-19T07:29:52;7.15;;;6.32;;
53269;SDS011;39159;45.634;9.420;2023-06-19T07:32:18;6.00;;;5.18;;
53269;SDS011;39159;45.634;9.420;2023-06-19T07:34:43;7.85;;;6.30;;
53269;SDS011;39159;45.634;9.420;2023-06-19T07:37:09;11.23;;;6.68;;
53269;SDS011;39159;45.634;9.420;2023-06-19T07:39:34;9.75;;;6.18;;
53269;SDS011;39159;45.634;9.420;2023-06-19T07:42:00;5.93;;;5.10;;
53269;SDS011;39159;45.634;9.420;2023-06-19T07:44:25;6.07;;;5.20;;
53269;SDS011;39159;45.634;9.420;2023-06-19T07:46:50;7.57;;;5.43;;
53269;SDS011;39159;45.634;9.420;2023-06-19T07:49:16;6.57;;;5.80;;
53269;SDS011;39159;45.634;9.420;2023-06-19T07:51:41;6.43;;;4.88;;
53269;SDS011;39159;45.634;9.420;2023-06-19T07:54:07;5.72;;;4.72;;
53269;SDS011;39159;45.634;9.420;2023-06-19T07:56:32;9.63;;;6.40;;
53269;SDS011;39159;45.634;9.420;2023-06-19T07:58:58;7.70;;;6.20;;
53269;SDS011;39159;45.634;9.420;2023-06-19T08:01:24;7.85;;;5.65;;
53269;SDS011;39159;45.634;9.420;2023-06-19T08:03:49;8.10;;;5.35;;
53269;SDS011;39159;45.634;9.420;2023-06-19T08:06:15;9.40;;;5.75;;
53269;SDS011;39159;45.634;9.420;2023-06-19T08:08:40;6.78;;;5.43;;
53269;SDS011;39159;45.634;9.420;2023-06-19T08:11:05;6.25;;;5.22;;
53269;SDS011;39159;45.634;9.420;2023-06-19T08:13:31;6.57;;;5.00;;
53269;SDS011;39159;45.634;9.420;2023-06-19T08:15:56;7.50;;;5.47;;
53269;SDS011;39159;45.634;9.420;2023-06-19T08:18:22;6.10;;;4.80;;
53269;SDS011;39159;45.634;9.420;2023-06-19T08:20:47;8.70;;;5.90;;
53269;SDS011;39159;45.634;9.420;2023-06-19T08:23:14;9.13;;;5.72;;
53269;SDS011;39159;45.634;9.420;2023-06-19T08:25:39;6.75;;;4.95;;
53269;SDS011;39159;45.634;9.420;2023-06-19T08:28:05;10.73;;;5.28;;
53269;SDS011;39159;45.634;9.420;2023-06-19T08:30:30;5.45;;;4.88;;
53269;SDS011;39159;45.634;9.420;2023-06-19T08:32:56;8.07;;;6.05;;
53269;SDS011;39159;45.634;9.420;2023-06-19T08:35:21;10.30;;;5.25;;
53269;SDS011;39159;45.634;9.420;2023-06-19T08:37:47;6.45;;;5.68;;
53269;SDS011;39159;45.634;9.420;2023-06-19T08:40:13;10.35;;;6.22;;
53269;SDS011;39159;45.634;9.420;2023-06-19T08:42:38;8.73;;;5.80;;
53269;SDS011;39159;45.634;9.420;2023-06-19T08:45:05;9.95;;;6.30;;
53269;SDS011;39159;45.634;9.420;2023-06-19T08:47:32;8.27;;;6.43;;
53269;SDS011;39159;45.634;9.420;2023-06-19T08:49:59;10.23;;;5.78;;
53269;SDS011;39159;45.634;9.420;2023-06-19T08:52:24;10.80;;;6.50;;
53269;SDS011;39159;45.634;9.420;2023-06-19T08:54:50;7.88;;;6.57;;
53269;SDS011;39159;45.634;9.420;2023-06-19T08:57:15;6.85;;;5.63;;
53269;SDS011;39159;45.634;9.420;2023-06-19T08:59:47;8.13;;;5.25;;
53269;SDS011;39159;45.634;9.420;2023-06-19T09:02:14;9.90;;;5.40;;
53269;SDS011;39159;45.634;9.420;2023-06-19T09:04:40;7.93;;;6.30;;
53269;SDS011;39159;45.634;9.420;2023-06-19T09:07:07;6.15;;;5.47;;
53269;SDS011;39159;45.634;9.420;2023-06-19T09:09:33;5.97;;;5.03;;
53269;SDS011;39159;45.634;9.420;2023-06-19T09:12:02;10.23;;;5.45;;
53269;SDS011;39159;45.634;9.420;2023-06-19T09:14:35;7.32;;;5.47;;
53269;SDS011;39159;45.634;9.420;2023-06-19T09:17:02;6.70;;;5.80;;
53269;SDS011;39159;45.634;9.420;2023-06-19T09:19:29;11.80;;;5.05;;
53269;SDS011;39159;45.634;9.420;2023-06-19T09:22:02;7.78;;;5.53;;
53269;SDS011;39159;45.634;9.420;2023-06-19T09:24:38;8.27;;;6.82;;
53269;SDS011;39159;45.634;9.420;2023-06-19T09:29:43;10.05;;;5.70;;
53269;SDS011;39159;45.634;9.420;2023-06-19T09:32:17;8.80;;;6.47;;
53269;SDS011;39159;45.634;9.420;2023-06-19T09:34:46;7.25;;;5.30;;
53269;SDS011;39159;45.634;9.420;2023-06-19T09:37:13;8.82;;;5.57;;
53269;SDS011;39159;45.634;9.420;2023-06-19T09:39:39;8.30;;;6.78;;
53269;SDS011;39159;45.634;9.420;2023-06-19T09:42:09;9.43;;;6.60;;
53269;SDS011;39159;45.634;9.420;2023-06-19T09:44:41;9.95;;;6.57;;
53269;SDS011;39159;45.634;9.420;2023-06-19T09:47:11;11.02;;;8.32;;
53269;SDS011;39159;45.634;9.420;2023-06-19T09:49:43;9.90;;;8.00;;
53269;SDS011;39159;45.634;9.420;2023-06-19T09:52:14;9.75;;;7.18;;
53269;SDS011;39159;45.634;9.420;2023-06-19T09:54:40;7.50;;;5.47;;
53269;SDS011;39159;45.634;9.420;2023-06-19T09:57:08;7.40;;;6.45;;
53269;SDS011;39159;45.634;9.420;2023-06-19T09:59:35;11.48;;;6.15;;
53269;SDS011;39159;45.634;9.420;2023-06-19T10:02:02;8.65;;;6.32;;
53269;SDS011;39159;45.634;9.420;2023-06-19T10:04:41;9.40;;;6.95;;
53269;SDS011;39159;45.634;9.420;2023-06-19T10:07:17;15.23;;;6.63;;
53269;SDS011;39159;45.634;9.420;2023-06-19T10:09:55;8.75;;;5.57;;
53269;SDS011;39159;45.634;9.420;2023-06-19T10:12:36;7.50;;;5.95;;
53269;SDS011;39159;45.634;9.420;2023-06-19T10:15:19;7.13;;;6.00;;
53269;SDS011;39159;45.634;9.420;2023-06-19T10:17:50;26.20;;;6.90;;
53269;SDS011;39159;45.634;9.420;2023-06-19T10:20:24;9.48;;;6.85;;
53269;SDS011;39159;45.634;9.420;2023-06-19T10:23:03;8.43;;;6.55;;
53269;SDS011;39159;45.634;9.420;2023-06-19T10:25:34;10.80;;;7.05;;
53269;SDS011;39159;45.634;9.420;2023-06-19T10:28:01;9.57;;;7.10;;
53269;SDS011;39159;45.634;9.420;2023-06-19T10:30:28;10.98;;;7.53;;
53269;SDS011;39159;45.634;9.420;2023-06-19T10:32:54;8.63;;;7.72;;
53269;SDS011;39159;45.634;9.420;2023-06-19T10:35:20;9.32;;;7.00;;
53269;SDS011;39159;45.634;9.420;2023-06-19T10:37:46;10.10;;;8.57;;
53269;SDS011;39159;45.634;9.420;2023-06-19T10:40:12;13.43;;;8.02;;
53269;SDS011;39159;45.634;9.420;2023-06-19T10:42:41;8.43;;;7.53;;
53269;SDS011;39159;45.634;9.420;2023-06-19T10:45:11;13.57;;;8.73;;
53269;SDS011;39159;45.634;9.420;2023-06-19T10:47:39;10.75;;;7.70;;
53269;SDS011;39159;45.634;9.420;2023-06-19T10:50:09;12.35;;;7.45;;
53269;SDS011;39159;45.634;9.420;2023-06-19T10:52:36;9.02;;;6.50;;
53269;SDS011;39159;45.634;9.420;2023-06-19T10:55:01;8.20;;;7.40;;
53269;SDS011;39159;45.634;9.420;2023-06-19T10:57:29;12.88;;;8.93;;
53269;SDS011;39159;45.634;9.420;2023-06-19T10:59:55;7.53;;;6.57;;
53269;SDS011;39159;45.634;9.420;2023-06-19T11:02:21;9.77;;;8.02;;
53269;SDS011;39159;45.634;9.420;2023-06-19T11:04:48;8.50;;;6.80;;
53269;SDS011;39159;45.634;9.420;2023-06-19T11:07:13;15.48;;;7.80;;
53269;SDS011;39159;45.634;9.420;2023-06-19T11:09:39;8.05;;;6.63;;
53269;SDS011;39159;45.634;9.420;2023-06-19T11:12:05;8.55;;;7.28;;
53269;SDS011;39159;45.634;9.420;2023-06-19T11:14:34;10.63;;;7.90;;
53269;SDS011;39159;45.634;9.420;2023-06-19T11:17:05;8.18;;;6.85;;
53269;SDS011;39159;45.634;9.420;2023-06-19T11:19:31;9.45;;;7.35;;
53269;SDS011;39159;45.634;9.420;2023-06-19T11:22:01;10.10;;;8.25;;
53269;SDS011;39159;45.634;9.420;2023-06-19T11:24:28;9.43;;;6.65;;
53269;SDS011;39159;45.634;9.420;2023-06-19T11:26:55;8.98;;;6.97;;
53269;SDS011;39159;45.634;9.420;2023-06-19T11:29:24;10.18;;;7.85;;
53269;SDS011;39159;45.634;9.420;2023-06-19T11:32:14;8.32;;;7.40;;
53269;SDS011;39159;45.634;9.420;2023-06-19T11:34:40;8.77;;;6.22;;
53269;SDS011;39159;45.634;9.420;2023-06-19T11:39:44;12.85;;;7.82;;
53269;SDS011;39159;45.634;9.420;2023-06-19T11:42:11;8.00;;;6.45;;
53269;SDS011;39159;45.634;9.420;2023-06-19T11:44:52;8.75;;;6.70;;
53269;SDS011;39159;45.634;9.420;2023-06-19T11:47:18;7.32;;;6.32;;
53269;SDS011;39159;45.634;9.420;2023-06-19T11:49:44;34.08;;;8.55;;
53269;SDS011;39159;45.634;9.420;2023-06-19T11:52:12;11.68;;;7.20;;
53269;SDS011;39159;45.634;9.420;2023-06-19T11:54:38;9.98;;;6.88;;
53269;SDS011;39159;45.634;9.420;2023-06-19T11:57:03;7.57;;;6.65;;
53269;SDS011;39159;45.634;9.420;2023-06-19T11:59:29;10.05;;;8.38;;
53269;SDS011;39159;45.634;9.420;2023-06-19T12:01:55;52.75;;;9.23;;
53269;SDS011;39159;45.634;9.420;2023-06-19T12:04:23;14.05;;;8.05;;
53269;SDS011;39159;45.634;9.420;2023-06-19T12:06:48;10.20;;;7.80;;
53269;SDS011;39159;45.634;9.420;2023-06-19T12:09:14;11.35;;;8.70;;
53269;SDS011;39159;45.634;9.420;2023-06-19T12:11:40;10.88;;;8.05;;
53269;SDS011;39159;45.634;9.420;2023-06-19T12:14:05;10.00;;;8.73;;
53269;SDS011;39159;45.634;9.420;2023-06-19T12:16:31;9.35;;;6.95;;
53269;SDS011;39159;45.634;9.420;2023-06-19T12:18:56;9.23;;;6.90;;
53269;SDS011;39159;45.634;9.420;2023-06-19T12:21:22;7.32;;;6.35;;
53269;SDS011;39159;45.634;9.420;2023-06-19T12:23:47;13.50;;;6.85;;
53269;SDS011;39159;45.634;9.420;2023-06-19T12:26:13;8.82;;;6.72;;
53269;SDS011;39159;45.634;9.420;2023-06-19T12:28:38;8.93;;;6.78;;
53269;SDS011;39159;45.634;9.420;2023-06-19T12:31:04;10.80;;;6.40;;
53269;SDS011;39159;45.634;9.420;2023-06-19T12:33:30;7.22;;;6.53;;
53269;SDS011;39159;45.634;9.420;2023-06-19T12:35:56;9.10;;;6.90;;
53269;SDS011;39159;45.634;9.420;2023-06-19T12:38:21;10.32;;;7.00;;
53269;SDS011;39159;45.634;9.420;2023-06-19T12:40:47;7.20;;;5.82;;
53269;SDS011;39159;45.634;9.420;2023-06-19T12:43:12;7.88;;;6.57;;
53269;SDS011;39159;45.634;9.420;2023-06-19T12:45:38;14.05;;;6.95;;
53269;SDS011;39159;45.634;9.420;2023-06-19T12:48:04;9.40;;;7.07;;
53269;SDS011;39159;45.634;9.420;2023-06-19T12:50:30;9.55;;;7.00;;
53269;SDS011;39159;45.634;9.420;2023-06-19T12:52:55;9.65;;;6.80;;
53269;SDS011;39159;45.634;9.420;2023-06-19T12:55:20;16.13;;;7.25;;
53269;SDS011;39159;45.634;9.420;2023-06-19T12:57:46;10.63;;;6.93;;
53269;SDS011;39159;45.634;9.420;2023-06-19T13:00:12;10.18;;;7.13;;
53269;SDS011;39159;45.634;9.420;2023-06-19T13:02:40;9.88;;;6.90;;
53269;SDS011;39159;45.634;9.420;2023-06-19T13:05:08;10.10;;;7.13;;
53269;SDS011;39159;45.634;9.420;2023-06-19T13:07:34;11.43;;;7.10;;
53269;SDS011;39159;45.634;9.420;2023-06-19T13:10:00;10.30;;;6.32;;
53269;SDS011;39159;45.634;9.420;2023-06-19T13:12:25;10.02;;;7.40;;
53269;SDS011;39159;45.634;9.420;2023-06-19T13:14:51;7.63;;;6.82;;
53269;SDS011;39159;45.634;9.420;2023-06-19T13:17:17;8.68;;;7.18;;
53269;SDS011;39159;45.634;9.420;2023-06-19T13:19:42;8.25;;;6.97;;
53269;SDS011;39159;45.634;9.420;2023-06-19T13:22:08;12.73;;;7.28;;
53269;SDS011;39159;45.634;9.420;2023-06-19T13:24:33;9.70;;;6.20;;
53269;SDS011;39159;45.634;9.420;2023-06-19T13:26:59;10.15;;;6.55;;
53269;SDS011;39159;45.634;9.420;2023-06-19T13:29:25;11.13;;;7.60;;
53269;SDS011;39159;45.634;9.420;2023-06-19T13:31:50;8.60;;;7.35;;
53269;SDS011;39159;45.634;9.420;2023-06-19T13:34:16;11.65;;;6.60;;
53269;SDS011;39159;45.634;9.420;2023-06-19T13:36:43;10.48;;;7.55;;
53269;SDS011;39159;45.634;9.420;2023-06-19T13:39:09;8.52;;;7.28;;
53269;SDS011;39159;45.634;9.420;2023-06-19T13:41:34;9.73;;;7.63;;
53269;SDS011;39159;45.634;9.420;2023-06-19T13:44:00;16.55;;;7.97;;
53269;SDS011;39159;45.634;9.420;2023-06-19T13:46:26;9.95;;;7.45;;
53269;SDS011;39159;45.634;9.420;2023-06-19T13:48:52;11.23;;;7.97;;
53269;SDS011;39159;45.634;9.420;2023-06-19T13:51:18;9.95;;;7.45;;
53269;SDS011;39159;45.634;9.420;2023-06-19T13:53:47;8.38;;;7.50;;
53269;SDS011;39159;45.634;9.420;2023-06-19T13:56:13;24.27;;;8.43;;
53269;SDS011;39159;45.634;9.420;2023-06-19T13:58:39;9.10;;;8.10;;
53269;SDS011;39159;45.634;9.420;2023-06-19T14:01:05;10.82;;;8.82;;
53269;SDS011;39159;45.634;9.420;2023-06-19T14:03:31;8.45;;;7.30;;
53269;SDS011;39159;45.634;9.420;2023-06-19T14:05:56;10.68;;;7.82;;
53269;SDS011;39159;45.634;9.420;2023-06-19T14:08:22;7.82;;;7.00;;
53269;SDS011;39159;45.634;9.420;2023-06-19T14:10:49;9.90;;;7.57;;
53269;SDS011;39159;45.634;9.420;2023-06-19T14:13:15;7.68;;;6.97;;
53269;SDS011;39159;45.634;9.420;2023-06-19T14:15:41;9.32;;;8.02;;
53269;SDS011;39159;45.634;9.420;2023-06-19T14:18:07;9.00;;;6.88;;
53269;SDS011;39159;45.634;9.420;2023-06-19T14:20:33;8.70;;;7.05;;
53269;SDS011;39159;45.634;9.420;2023-06-19T14:22:59;10.88;;;7.47;;
53269;SDS011;39159;45.634;9.420;2023-06-19T14:25:24;8.88;;;7.22;;
53269;SDS011;39159;45.634;9.420;2023-06-19T14:27:49;11.63;;;7.10;;
53269;SDS011;39159;45.634;9.420;2023-06-19T14:30:15;8.68;;;6.35;;
53269;SDS011;39159;45.634;9.420;2023-06-19T14:32:40;14.48;;;9.60;;
53269;SDS011;39159;45.634;9.420;2023-06-19T14:35:06;9.68;;;7.30;;
53269;SDS011;39159;45.634;9.420;2023-06-19T14:37:32;7.32;;;5.93;;
53269;SDS011;39159;45.634;9.420;2023-06-19T14:39:57;9.38;;;7.20;;
53269;SDS011;39159;45.634;9.420;2023-06-19T14:42:23;12.70;;;7.95;;